Terminal Aerodrome Forecast
Issued by NWS

Current Version | Previous Version | Text Only | Print | Product List | Glossary Off
Versions: 1 2 3 4 5 6 7 8 9 10 11 12 13 14 15 16 17 18 19 20 21

000
FTUS44 KOHX 281200 AAB
TAFCKV
TAF AMD
KCKV 281253Z 2813/2912 VRB04KT 5SM BR SCT150
      TEMPO 2813/2814 2SM BR
     FM281400 12005KT P6SM SCT035
     FM282000 14004KT P6SM VCTS BKN050CB
     FM290200 15002KT P6SM SCT250
     FM290800 15002KT 4SM BR SCT150=

USA.gov is the U.S. government's official web portal to all federal, state and local government web resources and services.